Time;durP1;ratioP1;P1;durP2;ratioP2;P2;SDS_P1;SDS_P2;PMS_P1;PMS_P2;Temp;Humidity;BMP_temperature;BMP_pressure;BME280_temperature;BME280_humidity;BME280_pressure;Samples;Min_cycle;Max_cycle;Signal;HPM_P1;HPM_P2
2023/07/29 00:01:00;;;;;;;0.40;0.17;;;;;;;;;;10156635;29;20131;-82
2023/07/29 00:06:03;;;;;;;0.20;0.20;;;;;;;;;;10162956;29;20736;-82
2023/07/29 00:11:08;;;;;;;0.20;0.20;;;;;;;;;;10162500;29;20052;-82
2023/07/29 00:16:11;;;;;;;0.15;0.15;;;;;;;;;;10156009;29;20060;-82
2023/07/29 00:21:15;;;;;;;1.98;0.30;;;;;;;;;;10163055;29;20051;-82
2023/07/29 00:26:21;;;;;;;0.60;0.30;;;;;;;;;;10159504;29;20075;-82
2023/07/29 00:31:25;;;;;;;0.20;0.20;;;;;;;;;;10158773;29;20734;-82
2023/07/29 00:36:28;;;;;;;1.65;0.30;;;;;;;;;;10158674;29;20056;-82
2023/07/29 00:41:33;;;;;;;0.20;0.20;;;;;;;;;;10161498;29;20071;-83
2023/07/29 00:46:38;;;;;;;0.30;0.30;;;;;;;;;;10162412;29;20108;-83
2023/07/29 00:51:42;;;;;;;1.10;0.32;;;;;;;;;;10171776;29;20127;-83
2023/07/29 00:56:47;;;;;;;0.30;0.30;;;;;;;;;;10171879;29;20052;-83
2023/07/29 01:01:50;;;;;;;0.22;0.22;;;;;;;;;;10165233;29;20084;-83
2023/07/29 01:06:59;;;;;;;0.60;0.40;;;;;;;;;;10171628;29;20063;-83
2023/07/29 01:12:11;;;;;;;0.35;0.20;;;;;;;;;;10173156;29;20048;-83
2023/07/29 01:17:23;;;;;;;0.40;0.30;;;;;;;;;;10165504;29;20101;-84
2023/07/29 01:22:27;;;;;;;0.20;0.20;;;;;;;;;;10169391;29;20103;-83
2023/07/29 01:27:31;;;;;;;0.50;0.30;;;;;;;;;;10162407;29;20047;-84
2023/07/29 01:32:41;;;;;;;0.30;0.30;;;;;;;;;;10169550;29;20052;-82
2023/07/29 01:37:49;;;;;;;0.30;0.30;;;;;;;;;;10168515;29;20059;-83
2023/07/29 01:42:55;;;;;;;0.40;0.40;;;;;;;;;;10165440;29;20084;-83
2023/07/29 01:48:00;;;;;;;0.38;0.30;;;;;;;;;;10161305;29;20056;-83
2023/07/29 01:53:03;;;;;;;0.68;0.40;;;;;;;;;;10167229;29;20112;-83
2023/07/29 01:58:08;;;;;;;0.28;0.25;;;;;;;;;;10165731;29;20419;-83
2023/07/29 02:03:13;;;;;;;0.70;0.20;;;;;;;;;;10167185;29;20520;-83
2023/07/29 02:08:17;;;;;;;2.50;0.20;;;;;;;;;;10168970;29;20080;-83
2023/07/29 02:13:21;;;;;;;0.40;0.40;;;;;;;;;;10164990;29;20057;-83
2023/07/29 02:18:25;;;;;;;0.47;0.40;;;;;;;;;;10166084;29;20075;-83
2023/07/29 02:23:28;;;;;;;1.00;0.40;;;;;;;;;;10162930;29;20080;-83
2023/07/29 02:28:33;;;;;;;0.63;0.40;;;;;;;;;;10164788;29;20084;-83
2023/07/29 02:33:36;;;;;;;0.70;0.43;;;;;;;;;;10165421;29;20044;-83
2023/07/29 02:38:40;;;;;;;0.40;0.40;;;;;;;;;;10164668;29;20070;-83
2023/07/29 02:43:48;;;;;;;0.35;0.35;;;;;;;;;;10161847;29;20051;-84
2023/07/29 02:48:52;;;;;;;0.30;0.30;;;;;;;;;;10157962;29;20076;-83
2023/07/29 02:53:55;;;;;;;2.10;0.40;;;;;;;;;;10159912;29;20559;-83
2023/07/29 02:59:01;;;;;;;0.22;0.22;;;;;;;;;;10157990;29;20048;-82
2023/07/29 03:04:06;;;;;;;0.63;0.40;;;;;;;;;;10158564;29;20075;-83
2023/07/29 03:09:09;;;;;;;0.40;0.30;;;;;;;;;;10157747;29;20052;-82
2023/07/29 03:14:14;;;;;;;0.50;0.30;;;;;;;;;;10159287;29;20060;-83
2023/07/29 03:19:17;;;;;;;0.93;0.57;;;;;;;;;;10151725;29;20048;-82
2023/07/29 03:24:21;;;;;;;0.35;0.30;;;;;;;;;;10158436;29;20044;-82
2023/07/29 03:29:26;;;;;;;0.38;0.30;;;;;;;;;;10172026;29;20076;-83
2023/07/29 03:34:29;;;;;;;0.40;0.40;;;;;;;;;;10144415;29;20048;-82
2023/07/29 03:39:33;;;;;;;0.40;0.40;;;;;;;;;;10164615;29;20052;-83
2023/07/29 03:44:39;;;;;;;0.40;0.40;;;;;;;;;;10165412;29;20107;-82
2023/07/29 03:49:42;;;;;;;0.30;0.30;;;;;;;;;;10163592;29;20096;-82
2023/07/29 03:54:47;;;;;;;3.13;0.50;;;;;;;;;;10168083;29;20043;-83
2023/07/29 03:59:51;;;;;;;0.30;0.30;;;;;;;;;;10161349;29;20539;-82
2023/07/29 04:04:55;;;;;;;1.50;0.40;;;;;;;;;;10151709;29;20677;-83
2023/07/29 04:09:58;;;;;;;0.25;0.25;;;;;;;;;;10159141;29;20079;-83
2023/07/29 04:15:04;;;;;;;0.35;0.30;;;;;;;;;;10166684;29;20111;-83
2023/07/29 04:20:08;;;;;;;1.23;0.50;;;;;;;;;;10166887;29;20074;-83
2023/07/29 04:25:13;;;;;;;0.35;0.30;;;;;;;;;;10166007;29;20048;-82
2023/07/29 04:30:17;;;;;;;0.28;0.28;;;;;;;;;;10157690;29;20516;-82
2023/07/29 04:35:21;;;;;;;0.32;0.32;;;;;;;;;;10168918;29;20063;-83
2023/07/29 04:40:24;;;;;;;0.30;0.30;;;;;;;;;;10168357;29;20649;-83
2023/07/29 04:45:31;;;;;;;0.38;0.30;;;;;;;;;;10166272;29;20052;-83
2023/07/29 04:50:34;;;;;;;1.83;0.70;;;;;;;;;;10165781;29;20044;-84
2023/07/29 04:55:37;;;;;;;1.00;0.47;;;;;;;;;;10172294;29;20120;-83
2023/07/29 05:00:42;;;;;;;0.28;0.28;;;;;;;;;;10167596;29;20091;-82
2023/07/29 05:05:45;;;;;;;0.38;0.38;;;;;;;;;;10173228;29;20056;-83
2023/07/29 05:10:50;;;;;;;0.40;0.40;;;;;;;;;;10173294;29;20059;-83
2023/07/29 05:15:55;;;;;;;0.47;0.47;;;;;;;;;;10172663;29;20060;-83
2023/07/29 05:20:59;;;;;;;0.40;0.37;;;;;;;;;;10173246;29;20448;-84
2023/07/29 05:26:02;;;;;;;0.60;0.60;;;;;;;;;;10169725;29;20044;-83
2023/07/29 05:31:07;;;;;;;1.20;0.40;;;;;;;;;;10167373;29;20089;-82
2023/07/29 05:36:11;;;;;;;0.35;0.30;;;;;;;;;;10167052;29;20051;-83
2023/07/29 05:41:14;;;;;;;0.50;0.40;;;;;;;;;;10164902;29;20048;-84
2023/07/29 05:46:19;;;;;;;0.70;0.70;;;;;;;;;;10172569;29;20052;-84
2023/07/29 05:51:23;;;;;;;0.82;0.40;;;;;;;;;;10164673;29;20044;-83
2023/07/29 05:56:26;;;;;;;0.45;0.40;;;;;;;;;;10163403;29;20099;-83
2023/07/29 06:01:30;;;;;;;0.40;0.40;;;;;;;;;;10163702;29;20074;-83
2023/07/29 06:06:34;;;;;;;0.70;0.55;;;;;;;;;;10162502;29;20078;-83
2023/07/29 06:11:37;;;;;;;0.35;0.32;;;;;;;;;;10160592;29;20047;-83
2023/07/29 06:16:42;;;;;;;1.50;0.20;;;;;;;;;;10152713;29;20071;-83
2023/07/29 06:21:45;;;;;;;0.68;0.40;;;;;;;;;;10160154;29;20416;-83
2023/07/29 06:26:49;;;;;;;0.47;0.40;;;;;;;;;;10158381;29;20083;-83
2023/07/29 06:31:54;;;;;;;0.63;0.55;;;;;;;;;;10157497;29;20075;-84
2023/07/29 06:36:58;;;;;;;2.65;0.50;;;;;;;;;;10160172;29;20135;-83
2023/07/29 06:42:01;;;;;;;0.68;0.45;;;;;;;;;;10147521;29;20055;-82
2023/07/29 06:47:07;;;;;;;0.68;0.40;;;;;;;;;;10155855;29;20139;-82
2023/07/29 06:52:10;;;;;;;0.43;0.43;;;;;;;;;;10155700;29;20135;-82
2023/07/29 06:57:13;;;;;;;0.88;0.50;;;;;;;;;;10152669;29;20079;-82
2023/07/29 07:02:18;;;;;;;0.50;0.50;;;;;;;;;;10154793;29;20139;-82
2023/07/29 07:07:22;;;;;;;0.57;0.40;;;;;;;;;;10155326;29;20044;-82
2023/07/29 07:12:25;;;;;;;0.82;0.47;;;;;;;;;;10161545;29;20131;-83
2023/07/29 07:17:30;;;;;;;0.40;0.40;;;;;;;;;;10166709;29;20056;-84
2023/07/29 07:22:33;;;;;;;0.80;0.40;;;;;;;;;;10168441;29;20067;-83
2023/07/29 07:27:37;;;;;;;0.40;0.40;;;;;;;;;;10169252;29;20056;-83
2023/07/29 07:32:41;;;;;;;0.50;0.50;;;;;;;;;;10174403;29;20044;-82
2023/07/29 07:37:45;;;;;;;1.40;0.82;;;;;;;;;;10161023;29;20087;-82
2023/07/29 07:42:48;;;;;;;1.27;0.80;;;;;;;;;;10156122;29;20091;-82
2023/07/29 07:47:54;;;;;;;0.55;0.50;;;;;;;;;;10145003;29;20056;-84
2023/07/29 07:52:58;;;;;;;1.95;0.50;;;;;;;;;;10144335;29;20135;-83
2023/07/29 07:58:01;;;;;;;0.73;0.73;;;;;;;;;;10152281;29;20059;-83
2023/07/29 08:03:06;;;;;;;0.80;0.70;;;;;;;;;;10161725;29;20299;-83
2023/07/29 08:08:09;;;;;;;0.68;0.68;;;;;;;;;;10157388;29;20123;-84
2023/07/29 08:13:12;;;;;;;0.68;0.60;;;;;;;;;;10161733;29;20046;-82
2023/07/29 08:18:17;;;;;;;0.57;0.47;;;;;;;;;;10162933;29;20577;-83
2023/07/29 08:23:20;;;;;;;1.38;0.50;;;;;;;;;;10161803;29;20055;-83
2023/07/29 08:28:24;;;;;;;0.50;0.45;;;;;;;;;;10166637;29;20135;-83
2023/07/29 08:33:29;;;;;;;0.52;0.50;;;;;;;;;;10163207;29;20064;-83
2023/07/29 08:38:33;;;;;;;0.88;0.60;;;;;;;;;;10161822;29;20051;-83
2023/07/29 08:43:40;;;;;;;0.90;0.60;;;;;;;;;;10161080;29;20139;-84
2023/07/29 08:48:45;;;;;;;0.80;0.80;;;;;;;;;;10162333;29;20136;-83
2023/07/29 08:53:48;;;;;;;1.67;0.80;;;;;;;;;;10165612;29;20052;-82
2023/07/29 08:58:53;;;;;;;0.70;0.70;;;;;;;;;;10158014;29;20051;-83
2023/07/29 09:03:58;;;;;;;0.60;0.50;;;;;;;;;;10158538;29;20048;-83
2023/07/29 09:09:03;;;;;;;0.40;0.40;;;;;;;;;;10167833;29;20127;-83
2023/07/29 09:14:07;;;;;;;;;;;;;;;;;;10152310;29;20112;-83
2023/07/29 09:19:12;;;;;;;2.13;0.80;;;;;;;;;;10163718;29;19927;-82
2023/07/29 09:24:18;;;;;;;0.60;0.60;;;;;;;;;;10158053;29;20135;-82
2023/07/29 09:29:22;;;;;;;;;;;;;;;;;;10160949;29;20479;-82
2023/07/29 09:34:27;;;;;;;1.83;0.77;;;;;;;;;;10151691;29;19934;-82
2023/07/29 09:39:31;;;;;;;0.90;0.80;;;;;;;;;;10150143;29;20052;-83
2023/07/29 09:44:37;;;;;;;1.40;0.90;;;;;;;;;;10148808;29;20044;-83
2023/07/29 09:49:42;;;;;;;0.70;0.70;;;;;;;;;;10159846;29;20135;-82
2023/07/29 09:54:47;;;;;;;0.82;0.70;;;;;;;;;;10151734;29;20059;-83
2023/07/29 09:59:57;;;;;;;0.88;0.80;;;;;;;;;;10160497;29;20094;-84
2023/07/29 10:05:03;;;;;;;0.90;0.70;;;;;;;;;;10163975;29;20052;-82
2023/07/29 10:10:08;;;;;;;1.30;0.75;;;;;;;;;;10160656;29;20064;-82
2023/07/29 10:15:22;;;;;;;0.83;0.70;;;;;;;;;;10144788;29;20076;-83
2023/07/29 10:20:27;;;;;;;2.50;0.77;;;;;;;;;;10140456;29;20909;-82
2023/07/29 10:25:38;;;;;;;0.50;0.50;;;;;;;;;;10151901;29;20116;-81
2023/07/29 10:30:42;;;;;;;0.98;0.35;;;;;;;;;;10156707;29;20052;-82
2023/07/29 10:35:47;;;;;;;0.70;0.55;;;;;;;;;;10146491;29;20067;-83
2023/07/29 10:40:55;;;;;;;0.65;0.60;;;;;;;;;;10158219;29;20082;-83
2023/07/29 10:46:17;;;;;;;0.80;0.70;;;;;;;;;;10143954;29;20060;-83
2023/07/29 10:51:30;;;;;;;1.17;0.60;;;;;;;;;;10163174;29;20712;-82
2023/07/29 10:56:35;;;;;;;0.55;0.50;;;;;;;;;;10147298;29;20073;-83
2023/07/29 11:01:42;;;;;;;0.70;0.50;;;;;;;;;;10160533;29;20062;-82
2023/07/29 11:07:29;;;;;;;0.47;0.47;;;;;;;;;;10133615;29;20063;-83
2023/07/29 11:12:45;;;;;;;0.32;0.32;;;;;;;;;;10143507;29;20052;-82
2023/07/29 11:17:50;;;;;;;0.73;0.47;;;;;;;;;;10144988;29;20623;-82
2023/07/29 11:22:57;;;;;;;0.82;0.50;;;;;;;;;;10157435;29;20586;-82
2023/07/29 11:28:01;;;;;;;0.50;0.50;;;;;;;;;;10151117;29;20078;-82
2023/07/29 11:33:10;;;;;;;0.75;0.65;;;;;;;;;;10155633;29;20056;-82
2023/07/29 11:38:18;;;;;;;6.07;0.97;;;;;;;;;;10156196;29;20052;-83
2023/07/29 11:43:21;;;;;;;1.05;0.65;;;;;;;;;;10149699;29;20075;-82
2023/07/29 11:48:28;;;;;;;0.75;0.60;;;;;;;;;;10159419;29;20076;-83
2023/07/29 11:53:33;;;;;;;0.77;0.65;;;;;;;;;;10152298;29;20171;-83
2023/07/29 11:58:37;;;;;;;2.23;0.73;;;;;;;;;;10185332;23;20076;-91
2023/07/29 12:03:44;;;;;;;1.33;1.00;;;;;;;;;;10128492;29;20709;-89
2023/07/29 12:08:49;;;;;;;0.90;0.68;;;;;;;;;;10127008;29;20436;-90
2023/07/29 12:13:55;;;;;;;0.98;0.90;;;;;;;;;;10122269;29;20051;-88
2023/07/29 12:19:01;;;;;;;1.52;1.10;;;;;;;;;;10128751;29;20511;-89
2023/07/29 12:24:07;;;;;;;1.17;0.80;;;;;;;;;;10116025;29;20047;-89
2023/07/29 12:29:14;;;;;;;1.95;1.02;;;;;;;;;;10124280;29;20567;-89
2023/07/29 12:34:23;;;;;;;1.15;0.90;;;;;;;;;;10120888;29;20060;-90
2023/07/29 12:39:30;;;;;;;1.67;1.00;;;;;;;;;;10116667;29;20055;-89
2023/07/29 12:44:35;;;;;;;0.90;0.80;;;;;;;;;;10120372;29;20056;-91
2023/07/29 12:49:39;;;;;;;1.15;0.73;;;;;;;;;;10133707;29;20139;-90
2023/07/29 12:54:44;;;;;;;0.73;0.70;;;;;;;;;;10101499;29;20053;-90
2023/07/29 12:59:48;;;;;;;1.75;0.88;;;;;;;;;;10114487;29;20079;-89
2023/07/29 13:04:51;;;;;;;0.60;0.60;;;;;;;;;;10103414;29;20078;-88
2023/07/29 13:09:56;;;;;;;0.63;0.60;;;;;;;;;;10114198;29;20096;-87
2023/07/29 13:15:00;;;;;;;0.80;0.77;;;;;;;;;;10100929;29;20572;-88
2023/07/29 13:20:04;;;;;;;2.10;0.60;;;;;;;;;;10124818;29;20141;-88
2023/07/29 13:25:10;;;;;;;0.80;0.80;;;;;;;;;;10100415;29;20048;-89
2023/07/29 13:30:13;;;;;;;;;;;;;;;;;;10106829;29;20058;-88
2023/07/29 13:35:16;;;;;;;1.70;1.08;;;;;;;;;;10106364;29;19931;-88
2023/07/29 13:40:21;;;;;;;1.40;1.05;;;;;;;;;;10114343;29;20056;-88
2023/07/29 13:45:25;;;;;;;1.55;0.73;;;;;;;;;;10097809;29;20044;-89
2023/07/29 13:50:29;;;;;;;2.00;0.90;;;;;;;;;;10109808;29;20064;-88
2023/07/29 13:55:35;;;;;;;1.00;0.90;;;;;;;;;;10108529;29;20040;-89
2023/07/29 14:00:38;;;;;;;2.05;0.80;;;;;;;;;;10119837;29;20419;-87
2023/07/29 14:05:42;;;;;;;3.60;0.85;;;;;;;;;;10111458;29;20183;-88
2023/07/29 14:10:47;;;;;;;1.02;0.80;;;;;;;;;;10120681;29;20089;-87
2023/07/29 14:15:51;;;;;;;1.05;0.65;;;;;;;;;;10097199;29;20056;-87
2023/07/29 14:20:54;;;;;;;3.50;0.90;;;;;;;;;;10102828;29;20067;-87
2023/07/29 14:25:59;;;;;;;2.13;0.90;;;;;;;;;;10106923;29;20040;-87
2023/07/29 14:31:03;;;;;;;0.90;0.90;;;;;;;;;;10107538;29;20053;-88
2023/07/29 14:36:07;;;;;;;1.30;1.10;;;;;;;;;;10107928;29;20575;-87
2023/07/29 14:41:12;;;;;;;1.17;0.88;;;;;;;;;;10101989;29;20738;-86
2023/07/29 14:46:16;;;;;;;1.05;0.95;;;;;;;;;;10100828;29;20048;-87
2023/07/29 14:51:19;;;;;;;1.00;0.85;;;;;;;;;;10106974;29;20087;-87
2023/07/29 14:56:24;;;;;;;0.90;0.90;;;;;;;;;;10087464;29;20044;-87
2023/07/29 15:01:28;;;;;;;1.08;0.80;;;;;;;;;;10111758;29;20057;-86
2023/07/29 15:06:31;;;;;;;0.93;0.70;;;;;;;;;;10101882;29;20056;-88
2023/07/29 15:11:38;;;;;;;0.80;0.80;;;;;;;;;;10105292;29;20492;-87
2023/07/29 15:16:41;;;;;;;1.20;0.85;;;;;;;;;;10113031;29;20056;-87
2023/07/29 15:21:45;;;;;;;1.02;0.90;;;;;;;;;;10115255;29;20082;-86
2023/07/29 15:26:50;;;;;;;0.98;0.88;;;;;;;;;;10110194;29;20060;-87
2023/07/29 15:31:53;;;;;;;0.70;0.70;;;;;;;;;;10140290;29;20048;-87
2023/07/29 15:36:57;;;;;;;0.70;0.63;;;;;;;;;;10116996;29;20150;-86
2023/07/29 15:42:01;;;;;;;0.60;0.60;;;;;;;;;;10121200;29;20958;-86
2023/07/29 15:47:05;;;;;;;1.65;1.00;;;;;;;;;;10110652;29;20056;-87
2023/07/29 15:52:10;;;;;;;1.17;0.88;;;;;;;;;;10135130;29;20048;-87
2023/07/29 15:57:19;;;;;;;1.02;0.80;;;;;;;;;;10133148;29;20063;-86
2023/07/29 16:02:22;;;;;;;1.48;0.88;;;;;;;;;;10136811;29;20135;-87
2023/07/29 16:07:26;;;;;;;0.93;0.80;;;;;;;;;;10129508;29;20128;-88
2023/07/29 16:12:35;;;;;;;;;;;;;;;;;;10129478;29;20076;-89
2023/07/29 16:17:39;;;;;;;1.45;0.90;;;;;;;;;;10131915;29;19927;-87
2023/07/29 16:22:43;;;;;;;1.15;0.98;;;;;;;;;;10129267;29;20072;-87
2023/07/29 16:27:48;;;;;;;0.98;0.77;;;;;;;;;;10117500;29;20052;-87
2023/07/29 16:32:51;;;;;;;0.80;0.70;;;;;;;;;;10144011;29;20068;-88
2023/07/29 16:37:57;;;;;;;1.00;0.90;;;;;;;;;;10115786;29;20148;-88
2023/07/29 16:43:02;;;;;;;0.80;0.60;;;;;;;;;;10130511;29;20056;-88
2023/07/29 16:48:06;;;;;;;1.38;0.80;;;;;;;;;;10139662;29;20849;-89
2023/07/29 16:53:09;;;;;;;1.02;0.70;;;;;;;;;;10128754;29;20044;-88
2023/07/29 16:58:15;;;;;;;0.60;0.60;;;;;;;;;;10128749;29;20136;-89
2023/07/29 17:03:19;;;;;;;2.88;0.68;;;;;;;;;;10132247;29;20056;-90
2023/07/29 17:08:23;;;;;;;0.70;0.70;;;;;;;;;;10136901;29;20055;-87
2023/07/29 17:13:31;;;;;;;1.48;0.88;;;;;;;;;;10132272;29;20051;-88
2023/07/29 17:18:36;;;;;;;1.10;1.00;;;;;;;;;;10123589;29;20135;-89
2023/07/29 17:23:40;;;;;;;1.10;0.83;;;;;;;;;;10122579;29;20071;-87
2023/07/29 17:28:46;;;;;;;0.75;0.68;;;;;;;;;;10138110;29;20061;-88
2023/07/29 17:33:50;;;;;;;0.93;0.80;;;;;;;;;;10126252;29;20075;-88
2023/07/29 17:38:53;;;;;;;1.25;0.90;;;;;;;;;;10126819;29;20048;-88
2023/07/29 17:43:58;;;;;;;0.90;0.75;;;;;;;;;;10111888;29;20108;-90
2023/07/29 17:49:03;;;;;;;0.70;0.70;;;;;;;;;;10138512;29;20055;-87
2023/07/29 17:54:07;;;;;;;0.88;0.70;;;;;;;;;;10121168;29;20139;-89
2023/07/29 17:59:11;;;;;;;1.08;0.73;;;;;;;;;;10131083;29;20041;-89
2023/07/29 18:04:15;;;;;;;1.43;0.90;;;;;;;;;;10120686;29;20052;-88
2023/07/29 18:09:19;;;;;;;0.65;0.57;;;;;;;;;;10140958;29;20071;-88
2023/07/29 18:14:24;;;;;;;0.70;0.50;;;;;;;;;;10121287;29;20059;-89
2023/07/29 18:19:30;;;;;;;1.23;0.60;;;;;;;;;;10148100;29;20040;-88
2023/07/29 18:24:33;;;;;;;0.70;0.60;;;;;;;;;;10142277;29;20068;-89
2023/07/29 18:29:39;;;;;;;0.90;0.80;;;;;;;;;;10129984;29;20036;-89
2023/07/29 18:34:42;;;;;;;0.52;0.52;;;;;;;;;;10146936;29;20052;-89
2023/07/29 18:39:45;;;;;;;0.70;0.50;;;;;;;;;;10141614;29;20060;-89
2023/07/29 18:44:50;;;;;;;0.60;0.50;;;;;;;;;;10142412;29;20048;-89
2023/07/29 18:49:54;;;;;;;0.90;0.60;;;;;;;;;;10133159;29;20420;-89
2023/07/29 18:54:59;;;;;;;0.70;0.70;;;;;;;;;;10152889;29;20173;-89
2023/07/29 19:00:04;;;;;;;1.40;0.75;;;;;;;;;;10131364;29;20690;-89
2023/07/29 19:05:11;;;;;;;0.73;0.60;;;;;;;;;;10150592;23;20415;-83
2023/07/29 19:10:14;;;;;;;0.77;0.65;;;;;;;;;;10188281;28;20122;-83
2023/07/29 19:15:19;;;;;;;1.95;0.88;;;;;;;;;;10187499;29;20134;-82
2023/07/29 19:20:22;;;;;;;3.23;0.90;;;;;;;;;;10176934;29;20049;-81
2023/07/29 19:25:26;;;;;;;0.80;0.70;;;;;;;;;;10141380;29;20096;-82
2023/07/29 19:30:30;;;;;;;0.65;0.65;;;;;;;;;;10164379;29;20052;-83
2023/07/29 19:35:34;;;;;;;0.60;0.60;;;;;;;;;;10153309;29;20104;-83
2023/07/29 19:40:37;;;;;;;0.77;0.63;;;;;;;;;;10143142;29;20144;-84
2023/07/29 19:45:48;;;;;;;1.60;0.80;;;;;;;;;;10172108;29;20064;-82
2023/07/29 19:50:59;;;;;;;1.02;0.50;;;;;;;;;;10151030;29;20535;-83
2023/07/29 19:56:03;;;;;;;1.55;0.50;;;;;;;;;;10153551;29;20076;-84
2023/07/29 20:01:08;;;;;;;0.98;0.50;;;;;;;;;;10186017;29;20329;-85
2023/07/29 20:06:12;;;;;;;0.60;0.55;;;;;;;;;;10152324;29;20048;-84
2023/07/29 20:11:15;;;;;;;0.70;0.50;;;;;;;;;;10160542;29;20080;-84
2023/07/29 20:16:21;;;;;;;1.58;0.60;;;;;;;;;;10181088;29;20044;-84
2023/07/29 20:21:24;;;;;;;1.00;0.50;;;;;;;;;;10168019;29;20553;-86
2023/07/29 20:26:31;;;;;;;1.35;0.70;;;;;;;;;;10151713;29;20058;-86
2023/07/29 20:31:42;;;;;;;1.85;0.60;;;;;;;;;;10164339;29;20074;-86
2023/07/29 20:36:45;;;;;;;0.77;0.60;;;;;;;;;;10194700;29;20048;-86
2023/07/29 20:41:49;;;;;;;5.03;0.70;;;;;;;;;;10184261;29;20476;-85
2023/07/29 20:46:54;;;;;;;1.10;0.50;;;;;;;;;;10176990;29;20063;-85
2023/07/29 20:51:57;;;;;;;2.65;0.70;;;;;;;;;;10177077;29;20043;-85
2023/07/29 20:57:01;;;;;;;0.65;0.40;;;;;;;;;;10175213;29;20064;-85
2023/07/29 21:02:06;;;;;;;0.38;0.30;;;;;;;;;;10178388;29;20063;-85
2023/07/29 21:07:09;;;;;;;1.13;0.40;;;;;;;;;;10183521;29;20054;-86
2023/07/29 21:12:14;;;;;;;0.85;0.35;;;;;;;;;;10179240;29;20055;-83
2023/07/29 21:17:19;;;;;;;0.70;0.40;;;;;;;;;;10182826;29;20110;-83
2023/07/29 21:22:22;;;;;;;7.25;1.05;;;;;;;;;;10205902;29;20040;-85
2023/07/29 21:27:25;;;;;;;0.70;0.50;;;;;;;;;;10189110;29;20068;-83
2023/07/29 21:32:30;;;;;;;2.25;0.40;;;;;;;;;;10182661;29;20052;-85
2023/07/29 21:37:34;;;;;;;0.35;0.35;;;;;;;;;;10180682;29;20052;-85
2023/07/29 21:42:40;;;;;;;0.57;0.43;;;;;;;;;;10188334;29;20431;-86
2023/07/29 21:47:45;;;;;;;0.60;0.40;;;;;;;;;;10189090;29;20058;-85
2023/07/29 21:52:49;;;;;;;0.50;0.30;;;;;;;;;;10174433;29;20867;-85
2023/07/29 21:57:52;;;;;;;1.45;0.30;;;;;;;;;;10183569;29;20067;-85
2023/07/29 22:02:57;;;;;;;2.25;0.40;;;;;;;;;;10192414;29;20090;-83
2023/07/29 22:08:00;;;;;;;0.57;0.40;;;;;;;;;;10187071;29;20074;-83
2023/07/29 22:13:05;;;;;;;0.38;0.35;;;;;;;;;;10172541;29;20084;-84
2023/07/29 22:18:11;;;;;;;0.52;0.30;;;;;;;;;;10197177;29;20107;-84
2023/07/29 22:23:14;;;;;;;0.60;0.40;;;;;;;;;;10177069;29;20055;-86
2023/07/29 22:28:17;;;;;;;1.48;0.45;;;;;;;;;;10194150;29;20083;-85
2023/07/29 22:33:22;;;;;;;2.60;0.50;;;;;;;;;;10175068;29;20574;-85
2023/07/29 22:38:26;;;;;;;0.57;0.40;;;;;;;;;;10193915;29;20047;-85
2023/07/29 22:43:30;;;;;;;2.40;0.70;;;;;;;;;;10191979;29;20043;-85
2023/07/29 22:48:35;;;;;;;0.65;0.30;;;;;;;;;;10190943;29;20055;-84
2023/07/29 22:53:38;;;;;;;1.80;0.65;;;;;;;;;;10194162;29;20047;-83
2023/07/29 22:58:41;;;;;;;0.70;0.70;;;;;;;;;;10177519;29;20044;-84
2023/07/29 23:03:46;;;;;;;0.70;0.32;;;;;;;;;;10189631;29;20510;-85
2023/07/29 23:08:49;;;;;;;0.52;0.52;;;;;;;;;;10189959;29;20081;-86
2023/07/29 23:13:53;;;;;;;0.60;0.45;;;;;;;;;;10181685;29;20087;-86
2023/07/29 23:18:57;;;;;;;1.98;0.50;;;;;;;;;;10185609;29;20523;-85
2023/07/29 23:24:01;;;;;;;0.80;0.60;;;;;;;;;;10182747;29;20081;-85
2023/07/29 23:29:04;;;;;;;1.52;0.57;;;;;;;;;;10170199;29;20048;-84
2023/07/29 23:34:09;;;;;;;0.82;0.43;;;;;;;;;;10195977;29;20052;-84
2023/07/29 23:39:12;;;;;;;2.35;0.50;;;;;;;;;;10166118;29;20049;-83
2023/07/29 23:44:16;;;;;;;0.77;0.40;;;;;;;;;;10173961;29;20119;-84
2023/07/29 23:49:20;;;;;;;1.83;0.50;;;;;;;;;;10183091;29;20119;-86
2023/07/29 23:54:24;;;;;;;3.03;0.50;;;;;;;;;;10174039;29;20051;-86
2023/07/29 23:59:27;;;;;;;1.55;0.50;;;;;;;;;;10191902;29;20127;-85
